Time,TemperatureF,DewpointF,PressureIn,WindDirection,WindDirectionDegrees,WindSpeedMPH,WindSpeedGustMPH,Humidity,HourlyPrecipIn,Conditions,Clouds,dailyrainin,SoftwareType,DateUTC
2013-07-27 00:01:00,64.8,64.2,29.98,West,276,0.0,0.0,98,0.00,,,0.00,VWS V14.00,2013-07-27 04:01:00,
2013-07-27 00:02:00,64.8,64.2,29.98,South,183,0.0,0.0,98,0.00,,,0.00,VWS V14.00,2013-07-27 04:02:00,
2013-07-27 00:03:00,64.8,64.2,29.98,SSE,160,0.0,0.0,98,0.00,,,0.00,VWS V14.00,2013-07-27 04:03:00,
2013-07-27 00:06:00,64.8,64.2,29.98,SSW,205,0.0,0.0,98,0.00,,,0.00,VWS V14.00,2013-07-27 04:06:00,
2013-07-27 00:11:00,64.8,64.2,29.98,SE,141,0.0,0.0,98,0.00,,,0.00,VWS V14.00,2013-07-27 04:11:00,
2013-07-27 00:13:00,64.8,64.2,29.98,SE,140,0.0,0.0,98,0.00,,,0.00,VWS V14.00,2013-07-27 04:13:00,
2013-07-27 00:19:00,64.0,63.5,29.98,South,179,0.0,0.0,98,0.00,,,0.00,VWS V14.00,2013-07-27 04:19:00,
2013-07-27 00:25:00,63.9,63.3,29.98,SE,140,0.0,0.0,98,0.00,,,0.00,VWS V14.00,2013-07-27 04:25:00,
2013-07-27 00:30:00,63.7,63.1,29.98,ENE,76,0.0,0.0,98,0.00,,,0.00,VWS V14.00,2013-07-27 04:30:00,
2013-07-27 00:36:00,63.5,62.9,29.98,South,185,0.0,0.0,98,0.00,,,0.00,VWS V14.00,2013-07-27 04:36:00,
2013-07-27 00:42:00,63.5,62.9,29.98,South,181,0.0,0.0,98,0.00,,,0.00,VWS V14.00,2013-07-27 04:42:00,
2013-07-27 00:47:00,63.3,62.8,29.96,South,181,0.0,0.0,98,0.00,,,0.00,VWS V14.00,2013-07-27 04:47:00,
2013-07-27 00:52:00,63.1,62.6,29.96,SSE,160,0.0,0.0,98,0.00,,,0.00,VWS V14.00,2013-07-27 04:52:00,
2013-07-27 00:57:00,63.1,62.6,29.96,SSE,159,0.0,0.0,98,0.00,,,0.00,VWS V14.00,2013-07-27 04:57:00,
2013-07-27 01:03:00,63.0,62.4,29.98,SSE,159,0.0,0.0,98,0.00,,,0.00,VWS V14.00,2013-07-27 05:03:00,
2013-07-27 01:08:00,63.0,62.4,29.98,SSE,159,0.0,0.0,98,0.00,,,0.00,VWS V14.00,2013-07-27 05:08:00,
2013-07-27 01:13:00,63.0,62.4,29.98,SSE,159,0.0,0.0,98,0.00,,,0.00,VWS V14.00,2013-07-27 05:13:00,
2013-07-27 01:18:00,63.0,62.4,29.98,SSE,159,0.0,0.0,98,0.00,,,0.00,VWS V14.00,2013-07-27 05:18:00,
2013-07-27 01:24:00,63.0,62.4,29.98,SSE,160,0.0,0.0,98,0.00,,,0.00,VWS V14.00,2013-07-27 05:24:00,
2013-07-27 01:29:00,63.0,62.4,29.98,SSE,160,0.0,0.0,98,0.00,,,0.00,VWS V14.00,2013-07-27 05:29:00,
2013-07-27 01:35:00,63.0,62.4,29.98,SSE,160,0.0,0.0,98,0.00,,,0.00,VWS V14.00,2013-07-27 05:35:00,
2013-07-27 01:40:00,63.0,62.4,29.98,SSE,163,0.0,0.0,98,0.00,,,0.00,VWS V14.00,2013-07-27 05:40:00,
2013-07-27 01:46:00,63.0,62.4,29.96,SSE,168,0.0,0.0,98,0.00,,,0.00,VWS V14.00,2013-07-27 05:46:00,
2013-07-27 01:51:00,63.0,62.4,29.96,SSW,194,0.0,0.0,98,0.00,,,0.00,VWS V14.00,2013-07-27 05:51:00,
2013-07-27 01:56:00,63.1,62.6,29.96,SSW,197,0.0,0.0,98,0.00,,,0.00,VWS V14.00,2013-07-27 05:56:00,
2013-07-27 02:02:00,63.1,62.6,29.96,SSW,196,0.0,0.0,98,0.00,,,0.00,VWS V14.00,2013-07-27 06:02:00,
2013-07-27 02:07:00,63.1,62.6,29.96,SSW,196,0.0,0.0,98,0.00,,,0.00,VWS V14.00,2013-07-27 06:07:00,
2013-07-27 02:13:00,63.0,62.4,29.96,SSW,196,0.0,0.0,98,0.00,,,0.00,VWS V14.00,2013-07-27 06:13:00,
2013-07-27 02:18:00,63.0,62.4,29.96,SSW,195,0.0,0.0,98,0.00,,,0.00,VWS V14.00,2013-07-27 06:18:00,
2013-07-27 02:24:00,63.0,62.4,29.96,SSW,195,0.0,0.0,98,0.00,,,0.00,VWS V14.00,2013-07-27 06:24:00,
2013-07-27 02:29:00,63.0,62.4,29.96,SSW,194,0.0,0.0,98,0.00,,,0.00,VWS V14.00,2013-07-27 06:29:00,
2013-07-27 02:35:00,63.0,62.4,29.96,SSW,195,0.0,0.0,98,0.00,,,0.00,VWS V14.00,2013-07-27 06:35:00,
2013-07-27 02:41:00,63.0,62.4,29.96,SSW,195,0.0,0.0,98,0.00,,,0.00,VWS V14.00,2013-07-27 06:41:00,
2013-07-27 02:46:00,63.0,62.4,29.96,SSW,194,0.0,0.0,98,0.00,,,0.00,VWS V14.00,2013-07-27 06:46:00,
2013-07-27 02:52:00,62.8,62.2,29.96,SSW,194,0.0,0.0,98,0.00,,,0.00,VWS V14.00,2013-07-27 06:52:00,
2013-07-27 02:58:00,62.8,62.2,29.96,SSW,194,0.0,0.0,98,0.00,,,0.00,VWS V14.00,2013-07-27 06:58:00,
2013-07-27 03:03:00,62.8,62.2,29.96,SSW,195,0.0,0.0,98,0.00,,,0.00,VWS V14.00,2013-07-27 07:03:00,
2013-07-27 03:08:00,62.8,62.2,29.96,SSW,195,0.0,0.0,98,0.00,,,0.00,VWS V14.00,2013-07-27 07:08:00,
2013-07-27 03:14:00,62.8,62.2,29.96,South,174,0.0,0.0,98,0.00,,,0.00,VWS V14.00,2013-07-27 07:14:00,
2013-07-27 03:20:00,63.0,62.4,29.96,South,173,0.0,0.0,98,0.00,,,0.00,VWS V14.00,2013-07-27 07:20:00,
2013-07-27 03:25:00,63.0,62.4,29.96,SSW,213,0.0,0.0,98,0.00,,,0.00,VWS V14.00,2013-07-27 07:25:00,
2013-07-27 03:31:00,63.1,62.6,29.96,South,173,0.0,0.0,98,0.00,,,0.00,VWS V14.00,2013-07-27 07:31:00,
2013-07-27 03:37:00,63.1,62.6,29.96,South,181,0.0,0.0,98,0.00,,,0.00,VWS V14.00,2013-07-27 07:37:00,
2013-07-27 03:42:00,63.3,62.8,29.96,SSW,200,0.0,0.0,98,0.00,,,0.00,VWS V14.00,2013-07-27 07:42:00,
2013-07-27 03:47:00,63.3,62.8,29.96,SSW,201,0.0,0.0,98,0.00,,,0.00,VWS V14.00,2013-07-27 07:47:00,
2013-07-27 03:52:00,63.3,62.8,29.96,SSW,201,0.0,0.0,98,0.00,,,0.00,VWS V14.00,2013-07-27 07:52:00,
2013-07-27 03:57:00,63.3,62.8,29.96,SSW,196,0.0,0.0,98,0.00,,,0.00,VWS V14.00,2013-07-27 07:57:00,
2013-07-27 04:02:00,63.3,62.8,29.96,SSW,197,0.0,0.0,98,0.00,,,0.00,VWS V14.00,2013-07-27 08:02:00,
2013-07-27 04:07:00,63.3,62.8,29.96,SSW,197,0.0,0.0,98,0.00,,,0.00,VWS V14.00,2013-07-27 08:07:00,
2013-07-27 04:13:00,63.3,62.8,29.96,SSW,196,0.0,0.0,98,0.00,,,0.00,VWS V14.00,2013-07-27 08:13:00,
2013-07-27 04:18:00,63.5,62.9,29.96,SSW,197,0.0,0.0,98,0.00,,,0.00,VWS V14.00,2013-07-27 08:18:00,
2013-07-27 04:23:00,63.5,62.9,29.96,SSW,197,0.0,0.0,98,0.00,,,0.00,VWS V14.00,2013-07-27 08:23:00,
2013-07-27 04:28:00,63.5,62.9,29.96,SSW,196,0.0,0.0,98,0.00,,,0.00,VWS V14.00,2013-07-27 08:28:00,
2013-07-27 04:34:00,63.3,62.8,29.96,SSW,197,0.0,0.0,98,0.00,,,0.00,VWS V14.00,2013-07-27 08:34:00,
2013-07-27 04:40:00,63.3,62.8,29.96,SSW,197,0.0,0.0,98,0.00,,,0.00,VWS V14.00,2013-07-27 08:40:00,
2013-07-27 04:45:00,63.3,62.8,29.96,SSW,197,0.0,0.0,98,0.00,,,0.00,VWS V14.00,2013-07-27 08:45:00,
2013-07-27 04:51:00,63.1,62.6,29.96,SSW,197,0.0,0.0,98,0.00,,,0.00,VWS V14.00,2013-07-27 08:51:00,
2013-07-27 04:56:00,63.1,62.6,29.96,SSW,197,0.0,0.0,98,0.00,,,0.00,VWS V14.00,2013-07-27 08:56:00,
2013-07-27 05:02:00,63.1,62.6,29.96,SSW,196,0.0,0.0,98,0.00,,,0.00,VWS V14.00,2013-07-27 09:02:00,
2013-07-27 05:07:00,63.1,62.6,29.96,SSW,197,0.0,0.0,98,0.00,,,0.00,VWS V14.00,2013-07-27 09:07:00,
2013-07-27 05:12:00,63.1,62.6,29.96,SSW,197,0.0,0.0,98,0.00,,,0.00,VWS V14.00,2013-07-27 09:12:00,
2013-07-27 05:17:00,63.0,62.4,29.96,SSW,197,0.0,0.0,98,0.00,,,0.00,VWS V14.00,2013-07-27 09:17:00,
2013-07-27 05:23:00,63.0,62.4,29.96,SSW,197,0.0,0.0,98,0.00,,,0.00,VWS V14.00,2013-07-27 09:23:00,
2013-07-27 05:28:00,62.8,62.2,29.96,SSW,197,0.0,0.0,98,0.00,,,0.00,VWS V14.00,2013-07-27 09:28:00,
2013-07-27 05:33:00,62.6,62.0,29.96,SSW,197,0.0,0.0,98,0.00,,,0.00,VWS V14.00,2013-07-27 09:33:00,
2013-07-27 05:39:00,62.6,62.0,29.96,SSW,197,0.0,0.0,98,0.00,,,0.00,VWS V14.00,2013-07-27 09:39:00,
2013-07-27 05:44:00,62.2,61.7,29.96,SSW,197,0.0,0.0,98,0.00,,,0.00,VWS V14.00,2013-07-27 09:44:00,
2013-07-27 05:50:00,62.2,61.7,29.96,SSW,196,0.0,0.0,98,0.00,,,0.00,VWS V14.00,2013-07-27 09:50:00,
2013-07-27 05:56:00,62.1,61.5,29.96,SSW,197,0.0,0.0,98,0.00,,,0.00,VWS V14.00,2013-07-27 09:56:00,
2013-07-27 06:01:00,62.1,61.5,29.96,SSW,197,0.0,0.0,98,0.00,,,0.00,VWS V14.00,2013-07-27 10:01:00,
2013-07-27 06:06:00,62.1,61.5,29.96,SSW,197,0.0,0.0,98,0.00,,,0.00,VWS V14.00,2013-07-27 10:06:00,
2013-07-27 06:11:00,61.9,61.3,29.96,SSW,197,0.0,0.0,98,0.00,,,0.00,VWS V14.00,2013-07-27 10:11:00,
2013-07-27 06:16:00,61.9,61.3,29.96,SSW,196,0.0,0.0,98,0.00,,,0.00,VWS V14.00,2013-07-27 10:16:00,
2013-07-27 06:22:00,61.9,61.3,29.96,SSW,196,0.0,0.0,98,0.00,,,0.00,VWS V14.00,2013-07-27 10:22:00,
2013-07-27 06:27:00,61.9,61.3,29.96,SSW,196,0.0,0.0,98,0.00,,,0.00,VWS V14.00,2013-07-27 10:27:00,
2013-07-27 06:33:00,61.9,61.3,29.98,SSW,197,0.0,0.0,98,0.00,,,0.00,VWS V14.00,2013-07-27 10:33:00,
2013-07-27 06:39:00,61.9,61.3,29.98,SSW,197,0.0,0.0,98,0.00,,,0.00,VWS V14.00,2013-07-27 10:39:00,
2013-07-27 06:44:00,61.9,61.3,29.96,SSW,197,0.0,0.0,98,0.00,,,0.00,VWS V14.00,2013-07-27 10:44:00,
2013-07-27 06:47:00,62.1,61.5,29.96,SSW,197,0.0,0.0,98,0.00,,,0.00,VWS V14.00,2013-07-27 10:47:00,
2013-07-27 06:52:00,62.2,61.7,29.96,SSW,196,0.0,0.0,98,0.00,,,0.00,VWS V14.00,2013-07-27 10:52:00,
2013-07-27 06:57:00,62.2,61.7,29.96,WSW,244,0.0,0.0,98,0.00,,,0.00,VWS V14.00,2013-07-27 10:57:00,
2013-07-27 07:02:00,62.6,62.0,29.96,WSW,245,0.0,0.0,98,0.00,,,0.00,VWS V14.00,2013-07-27 11:02:00,
2013-07-27 07:07:00,62.8,62.2,29.96,WSW,245,0.0,0.0,98,0.00,,,0.00,VWS V14.00,2013-07-27 11:07:00,
2013-07-27 07:12:00,62.8,62.2,29.96,WSW,243,0.0,0.0,98,0.00,,,0.00,VWS V14.00,2013-07-27 11:12:00,
2013-07-27 07:17:00,62.8,62.2,29.96,WSW,245,0.0,0.0,98,0.00,,,0.00,VWS V14.00,2013-07-27 11:17:00,
2013-07-27 07:23:00,63.0,62.4,29.96,North,349,0.0,0.0,98,0.00,,,0.00,VWS V14.00,2013-07-27 11:23:00,
2013-07-27 07:29:00,63.0,62.4,29.96,NNE,27,0.0,0.0,98,0.00,,,0.00,VWS V14.00,2013-07-27 11:29:00,
2013-07-27 07:35:00,63.1,62.6,29.98,NNE,19,0.0,0.0,98,0.00,,,0.00,VWS V14.00,2013-07-27 11:35:00,
2013-07-27 07:40:00,63.1,62.6,29.98,NNE,19,0.0,0.0,98,0.00,,,0.00,VWS V14.00,2013-07-27 11:40:00,
2013-07-27 07:46:00,63.1,62.6,29.98,NNE,18,0.0,0.0,98,0.00,,,0.00,VWS V14.00,2013-07-27 11:46:00,
2013-07-27 07:52:00,63.1,62.6,29.98,NNE,18,0.0,0.0,98,0.00,,,0.00,VWS V14.00,2013-07-27 11:52:00,
2013-07-27 07:57:00,63.1,62.6,29.98,NNE,31,0.0,0.0,98,0.00,,,0.00,VWS V14.00,2013-07-27 11:57:00,
2013-07-27 08:03:00,63.3,62.8,29.96,NE,42,0.0,0.0,98,0.00,,,0.00,VWS V14.00,2013-07-27 12:03:00,
2013-07-27 08:08:00,63.5,62.9,29.96,NE,42,0.0,0.0,98,0.00,,,0.00,VWS V14.00,2013-07-27 12:08:00,
2013-07-27 08:14:00,63.5,62.9,29.96,NE,42,0.0,0.0,98,0.00,,,0.00,VWS V14.00,2013-07-27 12:14:00,
2013-07-27 08:20:00,63.5,62.9,29.96,NE,42,0.0,0.0,98,0.00,,,0.00,VWS V14.00,2013-07-27 12:20:00,
2013-07-27 08:25:00,63.9,63.3,29.96,NE,42,0.0,0.0,98,0.00,,,0.00,VWS V14.00,2013-07-27 12:25:00,
2013-07-27 08:31:00,63.9,63.3,29.96,NE,42,0.0,0.0,98,0.00,,,0.00,VWS V14.00,2013-07-27 12:31:00,
2013-07-27 08:36:00,64.0,63.5,29.98,NE,42,0.0,0.0,98,0.00,,,0.00,VWS V14.00,2013-07-27 12:36:00,
2013-07-27 08:42:00,63.9,63.3,29.98,West,269,2.7,3.6,98,0.00,,,0.00,VWS V14.00,2013-07-27 12:42:00,
2013-07-27 08:47:00,63.9,63.3,29.98,West,268,0.0,0.0,98,0.00,,,0.00,VWS V14.00,2013-07-27 12:47:00,
2013-07-27 08:52:00,63.9,63.3,29.98,West,266,0.0,0.0,98,0.00,,,0.00,VWS V14.00,2013-07-27 12:52:00,
2013-07-27 08:57:00,63.9,63.3,29.98,NNW,336,2.2,2.7,98,0.00,,,0.00,VWS V14.00,2013-07-27 12:57:00,
2013-07-27 09:03:00,63.9,63.3,29.98,NW,305,0.0,0.0,98,0.00,,,0.00,VWS V14.00,2013-07-27 13:03:00,
2013-07-27 09:09:00,63.9,63.3,29.96,West,271,2.7,2.7,98,0.00,,,0.00,VWS V14.00,2013-07-27 13:09:00,
2013-07-27 09:14:00,64.2,63.7,29.96,NW,323,2.7,2.7,98,0.00,,,0.00,VWS V14.00,2013-07-27 13:14:00,
2013-07-27 09:19:00,64.6,64.0,29.96,NNW,337,2.7,2.7,98,0.00,,,0.00,VWS V14.00,2013-07-27 13:19:00,
2013-07-27 09:24:00,64.6,64.0,29.96,NW,325,2.7,2.7,98,0.00,,,0.00,VWS V14.00,2013-07-27 13:24:00,
2013-07-27 09:30:00,64.9,64.4,29.96,WNW,303,3.6,3.6,98,0.00,,,0.00,VWS V14.00,2013-07-27 13:30:00,
2013-07-27 09:35:00,65.1,64.5,29.96,WNW,303,3.6,3.6,98,0.00,,,0.00,VWS V14.00,2013-07-27 13:35:00,
2013-07-27 09:41:00,65.1,64.5,29.96,NW,308,3.6,3.6,98,0.00,,,0.00,VWS V14.00,2013-07-27 13:41:00,
2013-07-27 09:46:00,65.1,64.5,29.96,WNW,291,3.6,3.6,98,0.00,,,0.00,VWS V14.00,2013-07-27 13:46:00,
2013-07-27 09:52:00,65.1,64.5,29.96,NNW,337,2.7,2.7,98,0.00,,,0.00,VWS V14.00,2013-07-27 13:52:00,
2013-07-27 09:57:00,64.9,64.4,29.96,NNW,337,2.7,2.7,98,0.00,,,0.00,VWS V14.00,2013-07-27 13:57:00,
2013-07-27 10:03:00,64.8,64.2,29.96,NNW,337,2.7,2.7,98,0.00,,,0.00,VWS V14.00,2013-07-27 14:03:00,
2013-07-27 10:09:00,64.8,64.2,29.98,NNW,337,2.7,2.7,98,0.00,,,0.00,VWS V14.00,2013-07-27 14:09:00,
2013-07-27 10:14:00,64.9,64.4,29.98,NNE,20,0.0,0.0,98,0.00,,,0.00,VWS V14.00,2013-07-27 14:14:00,
2013-07-27 10:20:00,65.1,64.2,29.96,NNE,26,3.1,3.1,97,0.00,,,0.00,VWS V14.00,2013-07-27 14:20:00,
2013-07-27 10:26:00,65.3,64.4,29.96,NNE,12,3.1,3.1,97,0.00,,,0.00,VWS V14.00,2013-07-27 14:26:00,
2013-07-27 10:31:00,65.5,64.6,29.96,NNW,328,5.4,5.4,97,0.00,,,0.00,VWS V14.00,2013-07-27 14:31:00,
2013-07-27 10:36:00,65.5,64.0,29.96,NNW,329,2.7,2.7,95,0.00,,,0.00,VWS V14.00,2013-07-27 14:36:00,
2013-07-27 10:41:00,65.5,63.7,29.96,NE,43,0.0,2.7,94,0.00,,,0.00,VWS V14.00,2013-07-27 14:41:00,
2013-07-27 10:47:00,65.5,63.4,29.96,NNE,14,5.4,5.4,93,0.00,,,0.00,VWS V14.00,2013-07-27 14:47:00,
2013-07-27 10:52:00,65.5,63.1,29.96,North,350,2.7,2.7,92,0.00,,,0.00,VWS V14.00,2013-07-27 14:52:00,
2013-07-27 10:57:00,65.5,63.1,29.96,North,2,4.9,4.9,92,0.00,,,0.00,VWS V14.00,2013-07-27 14:57:00,
2013-07-27 11:02:00,65.7,63.0,29.96,WSW,240,5.4,5.4,91,0.00,,,0.00,VWS V14.00,2013-07-27 15:02:00,
2013-07-27 11:07:00,65.8,62.8,29.96,WSW,240,5.4,5.4,90,0.00,,,0.00,VWS V14.00,2013-07-27 15:07:00,
2013-07-27 11:13:00,65.8,62.2,29.96,WNW,288,2.7,2.7,88,0.00,,,0.00,VWS V14.00,2013-07-27 15:13:00,
2013-07-27 11:18:00,66.0,62.4,29.96,North,0,4.0,4.0,88,0.00,,,0.00,VWS V14.00,2013-07-27 15:18:00,
2013-07-27 11:23:00,66.2,62.2,29.96,North,0,4.0,4.0,87,0.00,,,0.00,VWS V14.00,2013-07-27 15:23:00,
2013-07-27 11:28:00,66.6,62.2,29.96,NNE,24,5.4,5.4,86,0.00,,,0.00,VWS V14.00,2013-07-27 15:28:00,
2013-07-27 11:33:00,66.7,62.4,29.96,North,357,4.0,4.0,86,0.00,,,0.00,VWS V14.00,2013-07-27 15:33:00,
2013-07-27 11:38:00,66.9,62.3,29.96,NW,324,2.2,5.4,85,0.00,,,0.00,VWS V14.00,2013-07-27 15:38:00,
2013-07-27 11:44:00,66.9,61.9,29.96,North,353,5.4,5.8,84,0.00,,,0.00,VWS V14.00,2013-07-27 15:44:00,
2013-07-27 11:49:00,66.6,60.6,29.96,NW,304,8.3,8.7,81,0.00,,,0.00,VWS V14.00,2013-07-27 15:49:00,
2013-07-27 11:54:00,66.4,60.4,29.96,NNW,346,3.1,4.0,81,0.00,,,0.00,VWS V14.00,2013-07-27 15:54:00,
2013-07-27 11:59:00,66.6,60.9,29.96,North,357,0.0,0.0,82,0.00,,,0.00,VWS V14.00,2013-07-27 15:59:00,
2013-07-27 12:04:00,67.1,61.4,29.96,NW,314,4.9,4.9,82,0.00,,,0.00,VWS V14.00,2013-07-27 16:04:00,
2013-07-27 12:10:00,67.5,61.4,29.96,WSW,243,8.1,8.1,81,0.00,,,0.00,VWS V14.00,2013-07-27 16:10:00,
2013-07-27 12:15:00,67.5,61.4,29.96,West,274,3.6,3.6,81,0.00,,,0.00,VWS V14.00,2013-07-27 16:15:00,
2013-07-27 12:20:00,67.6,60.2,29.96,NNW,340,5.8,5.8,77,0.00,,,0.00,VWS V14.00,2013-07-27 16:20:00,
2013-07-27 12:26:00,67.8,60.0,29.96,West,272,4.9,5.4,76,0.00,,,0.00,VWS V14.00,2013-07-27 16:26:00,
2013-07-27 12:31:00,68.0,59.4,29.96,SW,232,5.4,5.4,74,0.00,,,0.00,VWS V14.00,2013-07-27 16:31:00,
2013-07-27 12:37:00,68.4,59.0,29.96,SW,229,4.0,4.0,72,0.00,,,0.00,VWS V14.00,2013-07-27 16:37:00,
2013-07-27 12:42:00,68.7,59.3,29.96,SW,233,6.3,6.3,72,0.00,,,0.00,VWS V14.00,2013-07-27 16:42:00,
2013-07-27 12:48:00,68.7,59.0,29.96,SW,222,10.5,10.5,71,0.00,,,0.00,VWS V14.00,2013-07-27 16:48:00,
2013-07-27 12:53:00,68.7,59.0,29.96,NW,316,4.0,7.6,71,0.00,,,0.00,VWS V14.00,2013-07-27 16:53:00,
2013-07-27 12:58:00,68.5,58.8,29.96,WNW,294,7.2,7.2,71,0.00,,,0.00,VWS V14.00,2013-07-27 16:58:00,
2013-07-27 13:04:00,68.5,58.8,29.96,SSW,213,3.6,3.6,71,0.00,,,0.00,VWS V14.00,2013-07-27 17:04:00,
2013-07-27 13:09:00,68.7,59.3,29.96,NNW,339,7.6,7.6,72,0.00,,,0.00,VWS V14.00,2013-07-27 17:09:00,
2013-07-27 13:15:00,68.7,59.0,29.96,WSW,238,6.3,10.1,71,0.00,,,0.00,VWS V14.00,2013-07-27 17:15:00,
2013-07-27 13:20:00,68.9,59.1,29.96,NW,315,7.6,7.6,71,0.00,,,0.00,VWS V14.00,2013-07-27 17:20:00,
2013-07-27 13:26:00,69.4,59.6,29.96,NW,310,5.4,5.4,71,0.00,,,0.00,VWS V14.00,2013-07-27 17:26:00,
2013-07-27 13:31:00,69.6,59.4,29.96,NW,322,5.8,5.8,70,0.00,,,0.00,VWS V14.00,2013-07-27 17:31:00,
2013-07-27 13:36:00,69.8,58.8,29.96,NW,304,2.7,2.7,68,0.00,,,0.00,VWS V14.00,2013-07-27 17:36:00,
2013-07-27 13:42:00,70.2,58.7,29.96,SW,219,4.0,4.0,67,0.00,,,0.00,VWS V14.00,2013-07-27 17:42:00,
2013-07-27 13:47:00,70.3,58.5,29.96,WNW,300,5.8,5.8,66,0.00,,,0.00,VWS V14.00,2013-07-27 17:47:00,
2013-07-27 13:53:00,70.7,59.6,29.96,WNW,285,5.4,5.4,68,0.00,,,0.00,VWS V14.00,2013-07-27 17:53:00,
2013-07-27 13:58:00,71.1,60.0,29.96,WNW,285,5.4,5.4,68,0.00,,,0.00,VWS V14.00,2013-07-27 17:58:00,
2013-07-27 14:03:00,70.9,58.5,29.96,NNW,337,5.4,5.4,65,0.00,,,0.00,VWS V14.00,2013-07-27 18:03:00,
2013-07-27 14:08:00,70.5,57.8,29.96,West,274,5.4,5.4,64,0.00,,,0.00,VWS V14.00,2013-07-27 18:08:00,
2013-07-27 14:14:00,70.3,57.6,29.96,WSW,250,3.1,3.1,64,0.00,,,0.00,VWS V14.00,2013-07-27 18:14:00,
2013-07-27 14:19:00,69.8,57.1,29.96,West,279,6.7,6.7,64,0.00,,,0.00,VWS V14.00,2013-07-27 18:19:00,
2013-07-27 14:25:00,68.9,56.2,29.96,SW,215,6.3,6.3,64,0.00,,,0.00,VWS V14.00,2013-07-27 18:25:00,
2013-07-27 14:30:00,68.2,56.0,29.96,WSW,250,10.1,10.1,65,0.00,,,0.00,VWS V14.00,2013-07-27 18:30:00,
2013-07-27 14:35:00,68.2,56.0,29.96,NW,321,4.0,4.0,65,0.00,,,0.00,VWS V14.00,2013-07-27 18:35:00,
2013-07-27 14:41:00,66.7,55.5,29.96,North,0,8.1,8.1,67,0.00,,,0.00,VWS V14.00,2013-07-27 18:41:00,
2013-07-27 14:47:00,66.4,55.5,29.96,NNW,332,5.4,5.4,68,0.00,,,0.00,VWS V14.00,2013-07-27 18:47:00,
2013-07-27 14:53:00,66.0,55.2,29.96,NNW,328,4.0,4.0,68,0.00,,,0.00,VWS V14.00,2013-07-27 18:53:00,
2013-07-27 14:58:00,65.5,54.7,29.96,North,9,8.1,8.1,68,0.00,,,0.00,VWS V14.00,2013-07-27 18:58:00,
2013-07-27 15:03:00,64.8,54.0,29.96,North,9,8.1,8.1,68,0.00,,,0.00,VWS V14.00,2013-07-27 19:03:00,
2013-07-27 15:08:00,64.4,54.0,29.96,North,350,3.6,3.6,69,0.00,,,0.00,VWS V14.00,2013-07-27 19:08:00,
2013-07-27 15:14:00,63.9,53.9,29.96,NNW,339,6.3,6.3,70,0.00,,,0.00,VWS V14.00,2013-07-27 19:14:00,
2013-07-27 15:19:00,63.9,53.9,29.98,NNW,338,3.6,3.6,70,0.00,,,0.00,VWS V14.00,2013-07-27 19:19:00,
2013-07-27 15:24:00,64.4,54.8,29.98,WSW,240,4.9,4.9,71,0.00,,,0.00,VWS V14.00,2013-07-27 19:24:00,
2013-07-27 15:29:00,64.6,55.0,29.98,North,10,3.6,3.6,71,0.00,,,0.00,VWS V14.00,2013-07-27 19:29:00,
2013-07-27 15:34:00,65.7,55.2,29.96,NW,313,8.7,8.7,69,0.00,,,0.00,VWS V14.00,2013-07-27 19:34:00,
2013-07-27 15:39:00,65.5,53.8,29.96,NNW,340,5.4,6.3,66,0.00,,,0.00,VWS V14.00,2013-07-27 19:39:00,
2013-07-27 15:44:00,64.6,53.4,29.96,NNW,342,6.3,6.3,67,0.00,,,0.00,VWS V14.00,2013-07-27 19:44:00,
2013-07-27 15:50:00,64.4,54.0,29.98,NNW,348,5.4,7.6,69,0.00,,,0.00,VWS V14.00,2013-07-27 19:50:00,
2013-07-27 15:56:00,64.2,53.5,29.98,NW,321,7.6,8.1,68,0.00,,,0.00,VWS V14.00,2013-07-27 19:56:00,
2013-07-27 16:02:00,63.9,53.1,29.98,NNW,337,3.6,8.3,68,0.00,,,0.00,VWS V14.00,2013-07-27 20:02:00,
2013-07-27 16:07:00,63.5,53.2,29.96,NNW,331,3.6,3.6,69,0.00,,,0.00,VWS V14.00,2013-07-27 20:07:00,
2013-07-27 16:13:00,63.9,53.9,29.96,North,1,7.6,10.1,70,0.00,,,0.00,VWS V14.00,2013-07-27 20:13:00,
2013-07-27 16:18:00,63.9,53.5,29.96,West,265,4.0,6.3,69,0.00,,,0.00,VWS V14.00,2013-07-27 20:18:00,
2013-07-27 16:24:00,64.0,53.3,29.96,NNW,337,3.1,4.0,68,0.00,,,0.00,VWS V14.00,2013-07-27 20:24:00,
2013-07-27 16:29:00,64.0,53.7,29.96,NW,309,8.1,8.1,69,0.00,,,0.00,VWS V14.00,2013-07-27 20:29:00,
2013-07-27 16:34:00,64.0,53.3,29.96,North,353,5.8,8.7,68,0.00,,,0.00,VWS V14.00,2013-07-27 20:34:00,
2013-07-27 16:39:00,63.9,52.3,29.96,North,353,5.8,5.8,66,0.00,,,0.00,VWS V14.00,2013-07-27 20:39:00,
2013-07-27 16:45:00,63.9,52.7,29.96,NNW,341,7.6,7.6,67,0.00,,,0.00,VWS V14.00,2013-07-27 20:45:00,
2013-07-27 16:51:00,64.4,51.5,29.98,NNW,343,5.8,5.8,63,0.00,,,0.00,VWS V14.00,2013-07-27 20:51:00,
2013-07-27 16:56:00,64.2,50.9,29.98,North,350,3.1,3.1,62,0.00,,,0.00,VWS V14.00,2013-07-27 20:56:00,
2013-07-27 17:01:00,64.2,50.9,29.98,West,279,3.6,5.8,62,0.00,,,0.00,VWS V14.00,2013-07-27 21:01:00,
2013-07-27 17:06:00,65.1,51.8,29.96,NNW,345,6.3,6.3,62,0.00,,,0.00,VWS V14.00,2013-07-27 21:06:00,
2013-07-27 17:11:00,65.8,52.0,29.96,NNW,345,6.3,6.3,61,0.00,,,0.00,VWS V14.00,2013-07-27 21:11:00,
2013-07-27 17:16:00,66.2,51.5,29.96,SW,216,4.9,4.9,59,0.00,,,0.00,VWS V14.00,2013-07-27 21:16:00,
2013-07-27 17:22:00,66.2,51.5,29.96,NNW,333,6.3,6.3,59,0.00,,,0.00,VWS V14.00,2013-07-27 21:22:00,
2013-07-27 17:27:00,65.3,50.2,29.96,NW,312,5.4,5.4,58,0.00,,,0.00,VWS V14.00,2013-07-27 21:27:00,
2013-07-27 17:33:00,64.6,49.5,29.98,West,279,4.0,4.0,58,0.00,,,0.00,VWS V14.00,2013-07-27 21:33:00,
2013-07-27 17:38:00,64.0,49.4,29.98,WSW,239,2.7,5.4,59,0.00,,,0.00,VWS V14.00,2013-07-27 21:38:00,
2013-07-27 17:43:00,63.7,49.5,29.98,West,276,4.0,6.7,60,0.00,,,0.00,VWS V14.00,2013-07-27 21:43:00,
2013-07-27 17:48:00,63.7,49.5,29.96,WNW,295,4.0,4.0,60,0.00,,,0.00,VWS V14.00,2013-07-27 21:48:00,
2013-07-27 17:54:00,63.7,50.0,29.96,NNW,339,8.1,8.1,61,0.00,,,0.00,VWS V14.00,2013-07-27 21:54:00,
2013-07-27 17:59:00,63.5,49.8,29.96,WNW,284,2.7,2.7,61,0.00,,,0.00,VWS V14.00,2013-07-27 21:59:00,
2013-07-27 18:04:00,63.3,49.2,29.96,WNW,300,5.4,5.4,60,0.00,,,0.00,VWS V14.00,2013-07-27 22:04:00,
2013-07-27 18:09:00,63.1,49.0,29.98,West,277,4.0,4.0,60,0.00,,,0.00,VWS V14.00,2013-07-27 22:09:00,
2013-07-27 18:15:00,62.8,48.3,29.98,NW,325,3.6,3.6,59,0.00,,,0.00,VWS V14.00,2013-07-27 22:15:00,
2013-07-27 18:20:00,62.6,48.5,29.98,NW,308,4.0,6.3,60,0.00,,,0.00,VWS V14.00,2013-07-27 22:20:00,
2013-07-27 18:26:00,62.4,48.8,29.98,West,275,3.1,3.1,61,0.00,,,0.00,VWS V14.00,2013-07-27 22:26:00,
2013-07-27 18:32:00,62.1,48.5,29.98,WSW,244,2.7,2.7,61,0.00,,,0.00,VWS V14.00,2013-07-27 22:32:00,
2013-07-27 18:37:00,61.7,48.6,29.98,NW,315,3.6,5.4,62,0.00,,,0.00,VWS V14.00,2013-07-27 22:37:00,
2013-07-27 18:43:00,61.2,48.5,29.98,NW,315,6.3,6.3,63,0.00,,,0.00,VWS V14.00,2013-07-27 22:43:00,
2013-07-27 18:48:00,61.2,48.5,29.98,NW,317,5.4,5.4,63,0.00,,,0.00,VWS V14.00,2013-07-27 22:48:00,
2013-07-27 18:53:00,60.6,48.8,29.98,NW,324,4.0,5.4,65,0.00,,,0.00,VWS V14.00,2013-07-27 22:53:00,
2013-07-27 18:58:00,60.1,48.3,29.98,WNW,287,5.4,5.8,65,0.00,,,0.00,VWS V14.00,2013-07-27 22:58:00,
2013-07-27 19:04:00,60.1,48.3,29.98,WNW,283,3.6,5.4,65,0.00,,,0.00,VWS V14.00,2013-07-27 23:04:00,
2013-07-27 19:09:00,59.7,48.4,29.98,WSW,244,4.0,4.0,66,0.00,,,0.00,VWS V14.00,2013-07-27 23:09:00,
2013-07-27 19:14:00,59.2,47.8,29.98,WNW,301,5.8,5.8,66,0.00,,,0.00,VWS V14.00,2013-07-27 23:14:00,
2013-07-27 19:20:00,59.0,47.7,29.98,WNW,295,3.1,5.8,66,0.00,,,0.00,VWS V14.00,2013-07-27 23:20:00,
2013-07-27 19:26:00,58.8,47.9,29.98,West,263,2.7,5.4,67,0.00,,,0.00,VWS V14.00,2013-07-27 23:26:00,
2013-07-27 19:31:00,58.8,47.9,29.98,SSW,212,3.6,3.6,67,0.00,,,0.00,VWS V14.00,2013-07-27 23:31:00,
2013-07-27 19:36:00,58.8,47.9,29.98,North,2,4.0,4.0,67,0.00,,,0.00,VWS V14.00,2013-07-27 23:36:00,
2013-07-27 19:42:00,58.6,47.7,29.98,SW,233,2.7,3.1,67,0.00,,,0.00,VWS V14.00,2013-07-27 23:42:00,
2013-07-27 19:47:00,58.6,47.7,29.98,NNW,332,2.7,4.0,67,0.00,,,0.00,VWS V14.00,2013-07-27 23:47:00,
2013-07-27 19:52:00,58.6,48.1,29.98,NW,322,2.7,2.7,68,0.00,,,0.00,VWS V14.00,2013-07-27 23:52:00,
2013-07-27 19:57:00,58.5,48.0,30.01,NNW,344,3.1,3.1,68,0.00,,,0.00,VWS V14.00,2013-07-27 23:57:00,
2013-07-27 20:02:00,58.5,48.0,30.01,West,278,0.0,4.9,68,0.00,,,0.00,VWS V14.00,2013-07-28 00:02:00,
2013-07-27 20:07:00,58.5,48.0,30.01,West,277,0.0,0.0,68,0.00,,,0.00,VWS V14.00,2013-07-28 00:07:00,
2013-07-27 20:12:00,58.5,48.3,30.01,WNW,284,3.1,3.1,69,0.00,,,0.00,VWS V14.00,2013-07-28 00:12:00,
2013-07-27 20:18:00,58.5,48.3,29.98,NNW,341,3.6,3.6,69,0.00,,,0.00,VWS V14.00,2013-07-28 00:18:00,
2013-07-27 20:23:00,58.5,48.3,29.98,NW,304,2.7,2.7,69,0.00,,,0.00,VWS V14.00,2013-07-28 00:23:00,
2013-07-27 20:28:00,58.5,48.3,29.98,NW,312,2.7,2.7,69,0.00,,,0.00,VWS V14.00,2013-07-28 00:28:00,
2013-07-27 20:33:00,58.5,48.3,29.98,West,265,2.2,3.1,69,0.00,,,0.00,VWS V14.00,2013-07-28 00:33:00,
2013-07-27 20:38:00,58.5,48.3,29.98,NNW,341,3.1,3.1,69,0.00,,,0.00,VWS V14.00,2013-07-28 00:38:00,
2013-07-27 20:44:00,58.5,48.3,29.98,NW,314,3.1,5.8,69,0.00,,,0.00,VWS V14.00,2013-07-28 00:44:00,
2013-07-27 20:50:00,58.3,48.2,29.98,WNW,284,2.7,2.7,69,0.00,,,0.00,VWS V14.00,2013-07-28 00:50:00,
2013-07-27 20:55:00,58.1,48.0,29.98,North,1,2.2,3.6,69,0.00,,,0.00,VWS V14.00,2013-07-28 00:55:00,
2013-07-27 21:00:00,58.1,48.0,29.98,WNW,303,2.7,3.1,69,0.00,,,0.00,VWS V14.00,2013-07-28 01:00:00,
2013-07-27 21:05:00,58.1,48.0,29.98,NNW,332,3.6,3.6,69,0.00,,,0.00,VWS V14.00,2013-07-28 01:05:00,
2013-07-27 21:11:00,58.1,48.0,29.98,WSW,256,0.0,0.0,69,0.00,,,0.00,VWS V14.00,2013-07-28 01:11:00,
2013-07-27 21:17:00,58.1,48.0,30.01,NW,316,3.1,3.1,69,0.00,,,0.00,VWS V14.00,2013-07-28 01:17:00,
2013-07-27 21:23:00,58.1,48.0,30.01,WSW,251,2.7,3.1,69,0.00,,,0.00,VWS V14.00,2013-07-28 01:23:00,
2013-07-27 21:28:00,57.9,47.8,30.01,WSW,248,0.0,2.7,69,0.00,,,0.00,VWS V14.00,2013-07-28 01:28:00,
2013-07-27 21:33:00,57.9,48.2,29.98,WSW,243,0.0,0.0,70,0.00,,,0.00,VWS V14.00,2013-07-28 01:33:00,
2013-07-27 21:38:00,57.9,48.2,29.98,WSW,243,0.0,0.0,70,0.00,,,0.00,VWS V14.00,2013-07-28 01:38:00,
2013-07-27 21:44:00,57.9,48.2,29.98,WSW,244,0.0,0.0,70,0.00,,,0.00,VWS V14.00,2013-07-28 01:44:00,
2013-07-27 21:49:00,57.9,48.2,29.98,WSW,243,0.0,0.0,70,0.00,,,0.00,VWS V14.00,2013-07-28 01:49:00,
2013-07-27 21:54:00,57.9,48.6,29.98,WSW,244,0.0,0.0,71,0.00,,,0.00,VWS V14.00,2013-07-28 01:54:00,
2013-07-27 22:00:00,57.9,48.6,29.98,WSW,244,0.0,0.0,71,0.00,,,0.00,VWS V14.00,2013-07-28 02:00:00,
2013-07-27 22:06:00,57.9,48.6,29.98,WSW,244,0.0,0.0,71,0.00,,,0.00,VWS V14.00,2013-07-28 02:06:00,
2013-07-27 22:11:00,57.9,48.6,29.98,WSW,243,0.0,0.0,71,0.00,,,0.00,VWS V14.00,2013-07-28 02:11:00,
2013-07-27 22:17:00,57.9,48.6,29.98,WSW,244,0.0,0.0,71,0.00,,,0.00,VWS V14.00,2013-07-28 02:17:00,
2013-07-27 22:23:00,57.7,48.4,29.98,WSW,239,0.0,0.0,71,0.00,,,0.00,VWS V14.00,2013-07-28 02:23:00,
2013-07-27 22:28:00,57.7,48.4,29.98,WSW,240,0.0,0.0,71,0.00,,,0.00,VWS V14.00,2013-07-28 02:28:00,
2013-07-27 22:34:00,57.7,48.4,29.98,WSW,240,0.0,0.0,71,0.00,,,0.00,VWS V14.00,2013-07-28 02:34:00,
2013-07-27 22:39:00,57.7,48.4,29.98,WSW,239,2.2,2.2,71,0.00,,,0.00,VWS V14.00,2013-07-28 02:39:00,
2013-07-27 22:44:00,57.6,48.2,29.98,WSW,240,0.0,0.0,71,0.00,,,0.00,VWS V14.00,2013-07-28 02:44:00,
2013-07-27 22:49:00,57.6,48.2,29.98,WSW,239,0.0,0.0,71,0.00,,,0.00,VWS V14.00,2013-07-28 02:49:00,
2013-07-27 22:55:00,57.4,48.4,29.98,WSW,239,0.0,0.0,72,0.00,,,0.00,VWS V14.00,2013-07-28 02:55:00,
2013-07-27 23:00:00,57.4,48.4,29.98,WSW,239,0.0,0.0,72,0.00,,,0.00,VWS V14.00,2013-07-28 03:00:00,
2013-07-27 23:05:00,57.2,48.3,29.98,WSW,240,0.0,0.0,72,0.00,,,0.00,VWS V14.00,2013-07-28 03:05:00,
2013-07-27 23:10:00,57.2,48.3,29.98,WSW,239,0.0,0.0,72,0.00,,,0.00,VWS V14.00,2013-07-28 03:10:00,
2013-07-27 23:16:00,57.0,48.5,29.98,WSW,239,0.0,0.0,73,0.00,,,0.00,VWS V14.00,2013-07-28 03:16:00,
2013-07-27 23:21:00,57.0,48.5,29.98,WSW,239,0.0,0.0,73,0.00,,,0.00,VWS V14.00,2013-07-28 03:21:00,
2013-07-27 23:27:00,57.0,48.8,29.98,WSW,240,0.0,0.0,74,0.00,,,0.00,VWS V14.00,2013-07-28 03:27:00,
2013-07-27 23:32:00,57.0,48.8,29.98,WSW,239,0.0,0.0,74,0.00,,,0.00,VWS V14.00,2013-07-28 03:32:00,
2013-07-27 23:38:00,57.0,48.8,29.98,WSW,239,0.0,0.0,74,0.00,,,0.00,VWS V14.00,2013-07-28 03:38:00,
2013-07-27 23:43:00,57.0,48.8,29.98,SW,225,2.7,2.7,74,0.00,,,0.00,VWS V14.00,2013-07-28 03:43:00,
2013-07-27 23:48:00,57.0,49.2,29.98,SW,224,0.0,0.0,75,0.00,,,0.00,VWS V14.00,2013-07-28 03:48:00,
2013-07-27 23:54:00,57.0,49.2,29.98,SW,224,0.0,0.0,75,0.00,,,0.00,VWS V14.00,2013-07-28 03:54:00,
2013-07-27 23:59:00,57.2,49.4,29.98,SW,225,2.2,2.2,75,0.00,,,0.00,VWS V14.00,2013-07-28 03:59:00,